sensor_id;sensor_type;location;lat;lon;timestamp;temperature;humidity
11855;DHT22;5987;53.140;8.904;2022-11-18T00:01:06;5.50;99.90
11855;DHT22;5987;53.140;8.904;2022-11-18T00:04:10;5.50;99.90
11855;DHT22;5987;53.140;8.904;2022-11-18T00:07:14;5.40;99.90
11855;DHT22;5987;53.140;8.904;2022-11-18T00:10:19;5.40;99.90
11855;DHT22;5987;53.140;8.904;2022-11-18T00:13:23;5.40;99.90
11855;DHT22;5987;53.140;8.904;2022-11-18T00:16:44;5.40;99.90
11855;DHT22;5987;53.140;8.904;2022-11-18T00:19:48;5.40;99.90
11855;DHT22;5987;53.140;8.904;2022-11-18T00:22:52;5.40;99.90
11855;DHT22;5987;53.140;8.904;2022-11-18T00:26:01;5.40;99.90
11855;DHT22;5987;53.140;8.904;2022-11-18T00:29:05;5.40;99.90
11855;DHT22;5987;53.140;8.904;2022-11-18T00:32:10;5.30;99.90
11855;DHT22;5987;53.140;8.904;2022-11-18T00:35:14;5.30;99.90
11855;DHT22;5987;53.140;8.904;2022-11-18T00:38:18;5.30;99.90
11855;DHT22;5987;53.140;8.904;2022-11-18T00:41:23;5.20;99.90
11855;DHT22;5987;53.140;8.904;2022-11-18T00:44:47;5.20;99.90
11855;DHT22;5987;53.140;8.904;2022-11-18T00:47:50;5.10;99.90
11855;DHT22;5987;53.140;8.904;2022-11-18T00:50:54;5.10;99.90
11855;DHT22;5987;53.140;8.904;2022-11-18T00:53:59;5.10;99.90
11855;DHT22;5987;53.140;8.904;2022-11-18T00:57:05;5.00;99.90
11855;DHT22;5987;53.140;8.904;2022-11-18T01:00:09;5.00;99.90
11855;DHT22;5987;53.140;8.904;2022-11-18T01:03:14;4.90;99.90
11855;DHT22;5987;53.140;8.904;2022-11-18T01:06:17;4.90;99.90
11855;DHT22;5987;53.140;8.904;2022-11-18T01:09:21;4.90;99.90
11855;DHT22;5987;53.140;8.904;2022-11-18T01:12:26;4.80;99.90
11855;DHT22;5987;53.140;8.904;2022-11-18T01:15:56;4.90;99.90
11855;DHT22;5987;53.140;8.904;2022-11-18T01:19:01;4.80;99.90
11855;DHT22;5987;53.140;8.904;2022-11-18T01:22:04;4.80;99.90
11855;DHT22;5987;53.140;8.904;2022-11-18T01:25:08;4.80;99.90
11855;DHT22;5987;53.140;8.904;2022-11-18T01:28:13;4.80;99.90
11855;DHT22;5987;53.140;8.904;2022-11-18T01:31:24;4.80;99.90
11855;DHT22;5987;53.140;8.904;2022-11-18T01:34:28;4.80;99.90
11855;DHT22;5987;53.140;8.904;2022-11-18T01:37:32;4.80;99.90
11855;DHT22;5987;53.140;8.904;2022-11-18T01:40:36;4.80;99.90
11855;DHT22;5987;53.140;8.904;2022-11-18T01:43:50;4.80;99.90
11855;DHT22;5987;53.140;8.904;2022-11-18T01:46:56;4.90;99.90
11855;DHT22;5987;53.140;8.904;2022-11-18T01:49:59;4.80;99.90
11855;DHT22;5987;53.140;8.904;2022-11-18T01:53:07;4.80;99.90
11855;DHT22;5987;53.140;8.904;2022-11-18T01:56:21;4.80;99.90
11855;DHT22;5987;53.140;8.904;2022-11-18T01:59:31;4.80;99.90
11855;DHT22;5987;53.140;8.904;2022-11-18T02:02:39;4.80;99.90
11855;DHT22;5987;53.140;8.904;2022-11-18T02:05:46;4.80;99.90
11855;DHT22;5987;53.140;8.904;2022-11-18T02:08:51;4.80;99.90
11855;DHT22;5987;53.140;8.904;2022-11-18T02:11:56;4.80;99.90
11855;DHT22;5987;53.140;8.904;2022-11-18T02:15:01;4.80;99.90
11855;DHT22;5987;53.140;8.904;2022-11-18T02:18:10;4.70;99.90
11855;DHT22;5987;53.140;8.904;2022-11-18T02:21:30;4.80;99.90
11855;DHT22;5987;53.140;8.904;2022-11-18T02:24:51;4.80;99.90
11855;DHT22;5987;53.140;8.904;2022-11-18T02:28:16;4.80;99.90
11855;DHT22;5987;53.140;8.904;2022-11-18T02:31:33;4.80;99.90
11855;DHT22;5987;53.140;8.904;2022-11-18T02:34:47;4.80;99.90
11855;DHT22;5987;53.140;8.904;2022-11-18T02:37:58;4.80;99.90
11855;DHT22;5987;53.140;8.904;2022-11-18T02:41:08;4.70;99.90
11855;DHT22;5987;53.140;8.904;2022-11-18T02:44:16;4.70;99.90
11855;DHT22;5987;53.140;8.904;2022-11-18T02:47:26;4.60;99.90
11855;DHT22;5987;53.140;8.904;2022-11-18T02:50:34;4.60;99.90
11855;DHT22;5987;53.140;8.904;2022-11-18T02:53:41;4.60;99.90
11855;DHT22;5987;53.140;8.904;2022-11-18T02:56:48;4.50;99.90
11855;DHT22;5987;53.140;8.904;2022-11-18T02:59:54;4.50;99.90
11855;DHT22;5987;53.140;8.904;2022-11-18T03:02:59;4.50;99.90
11855;DHT22;5987;53.140;8.904;2022-11-18T03:06:28;4.40;99.90
11855;DHT22;5987;53.140;8.904;2022-11-18T03:09:38;4.40;99.90
11855;DHT22;5987;53.140;8.904;2022-11-18T03:12:52;4.40;99.90
11855;DHT22;5987;53.140;8.904;2022-11-18T03:16:08;4.40;99.90
11855;DHT22;5987;53.140;8.904;2022-11-18T03:19:21;4.30;99.90
11855;DHT22;5987;53.140;8.904;2022-11-18T03:22:37;4.30;99.90
11855;DHT22;5987;53.140;8.904;2022-11-18T03:25:49;4.40;99.90
11855;DHT22;5987;53.140;8.904;2022-11-18T03:28:59;4.30;99.90
11855;DHT22;5987;53.140;8.904;2022-11-18T03:32:11;4.40;99.90
11855;DHT22;5987;53.140;8.904;2022-11-18T03:35:23;4.30;99.90
11855;DHT22;5987;53.140;8.904;2022-11-18T03:38:33;4.30;99.90
11855;DHT22;5987;53.140;8.904;2022-11-18T03:41:44;4.30;99.90
11855;DHT22;5987;53.140;8.904;2022-11-18T03:44:53;4.20;99.90
11855;DHT22;5987;53.140;8.904;2022-11-18T03:48:06;4.20;99.90
11855;DHT22;5987;53.140;8.904;2022-11-18T03:51:17;4.20;99.90
11855;DHT22;5987;53.140;8.904;2022-11-18T03:54:27;4.20;99.90
11855;DHT22;5987;53.140;8.904;2022-11-18T03:57:42;4.10;99.90
11855;DHT22;5987;53.140;8.904;2022-11-18T04:00:58;4.10;99.90
11855;DHT22;5987;53.140;8.904;2022-11-18T04:04:11;4.10;99.90
11855;DHT22;5987;53.140;8.904;2022-11-18T04:07:21;4.20;99.90
11855;DHT22;5987;53.140;8.904;2022-11-18T04:10:31;4.20;99.90
11855;DHT22;5987;53.140;8.904;2022-11-18T04:13:39;4.20;99.90
11855;DHT22;5987;53.140;8.904;2022-11-18T04:16:44;4.10;99.90
11855;DHT22;5987;53.140;8.904;2022-11-18T04:19:52;4.10;99.90
11855;DHT22;5987;53.140;8.904;2022-11-18T04:22:57;4.10;99.90
11855;DHT22;5987;53.140;8.904;2022-11-18T04:26:01;4.10;99.90
11855;DHT22;5987;53.140;8.904;2022-11-18T04:29:04;4.00;99.90
11855;DHT22;5987;53.140;8.904;2022-11-18T04:32:08;4.00;99.90
11855;DHT22;5987;53.140;8.904;2022-11-18T04:35:12;3.90;99.90
11855;DHT22;5987;53.140;8.904;2022-11-18T04:38:18;3.90;99.90
11855;DHT22;5987;53.140;8.904;2022-11-18T04:41:23;3.90;99.90
11855;DHT22;5987;53.140;8.904;2022-11-18T04:44:46;3.90;99.90
11855;DHT22;5987;53.140;8.904;2022-11-18T04:47:50;4.00;99.90
11855;DHT22;5987;53.140;8.904;2022-11-18T04:50:55;3.90;99.90
11855;DHT22;5987;53.140;8.904;2022-11-18T04:54:02;4.00;99.90
11855;DHT22;5987;53.140;8.904;2022-11-18T04:57:06;4.00;99.90
11855;DHT22;5987;53.140;8.904;2022-11-18T05:00:11;4.00;99.90
11855;DHT22;5987;53.140;8.904;2022-11-18T05:03:15;4.00;99.90
11855;DHT22;5987;53.140;8.904;2022-11-18T05:06:19;3.90;99.90
11855;DHT22;5987;53.140;8.904;2022-11-18T05:09:25;3.90;99.90
11855;DHT22;5987;53.140;8.904;2022-11-18T05:12:33;3.90;99.90
11855;DHT22;5987;53.140;8.904;2022-11-18T05:15:51;3.90;99.90
11855;DHT22;5987;53.140;8.904;2022-11-18T05:18:55;3.90;99.90
11855;DHT22;5987;53.140;8.904;2022-11-18T05:21:59;4.00;99.90
11855;DHT22;5987;53.140;8.904;2022-11-18T05:25:05;3.90;99.90
11855;DHT22;5987;53.140;8.904;2022-11-18T05:28:09;3.90;99.90
11855;DHT22;5987;53.140;8.904;2022-11-18T05:31:14;3.90;99.90
11855;DHT22;5987;53.140;8.904;2022-11-18T05:34:18;3.90;99.90
11855;DHT22;5987;53.140;8.904;2022-11-18T05:37:22;3.80;99.90
11855;DHT22;5987;53.140;8.904;2022-11-18T05:40:27;3.90;99.90
11855;DHT22;5987;53.140;8.904;2022-11-18T05:43:32;3.80;99.90
11855;DHT22;5987;53.140;8.904;2022-11-18T05:46:38;3.80;99.90
11855;DHT22;5987;53.140;8.904;2022-11-18T05:49:48;3.80;99.90
11855;DHT22;5987;53.140;8.904;2022-11-18T05:52:51;3.80;99.90
11855;DHT22;5987;53.140;8.904;2022-11-18T05:56:00;3.80;99.90
11855;DHT22;5987;53.140;8.904;2022-11-18T05:59:08;3.80;99.90
11855;DHT22;5987;53.140;8.904;2022-11-18T06:02:14;3.70;99.90
11855;DHT22;5987;53.140;8.904;2022-11-18T06:05:39;3.70;99.90
11855;DHT22;5987;53.140;8.904;2022-11-18T06:08:46;3.70;99.90
11855;DHT22;5987;53.140;8.904;2022-11-18T06:11:56;3.70;99.90
11855;DHT22;5987;53.140;8.904;2022-11-18T06:15:04;3.60;99.90
11855;DHT22;5987;53.140;8.904;2022-11-18T06:18:18;3.60;99.90
11855;DHT22;5987;53.140;8.904;2022-11-18T06:21:25;3.60;99.90
11855;DHT22;5987;53.140;8.904;2022-11-18T06:24:30;3.60;99.90
11855;DHT22;5987;53.140;8.904;2022-11-18T06:27:35;3.60;99.90
11855;DHT22;5987;53.140;8.904;2022-11-18T06:30:39;3.60;99.90
11855;DHT22;5987;53.140;8.904;2022-11-18T06:33:44;3.60;99.90
11855;DHT22;5987;53.140;8.904;2022-11-18T06:36:47;3.60;99.90
11855;DHT22;5987;53.140;8.904;2022-11-18T06:39:51;3.60;99.90
11855;DHT22;5987;53.140;8.904;2022-11-18T06:42:56;3.60;99.90
11855;DHT22;5987;53.140;8.904;2022-11-18T06:46:17;3.60;99.90
11855;DHT22;5987;53.140;8.904;2022-11-18T06:49:38;3.50;99.90
11855;DHT22;5987;53.140;8.904;2022-11-18T06:52:42;3.50;99.90
11855;DHT22;5987;53.140;8.904;2022-11-18T06:55:46;3.60;99.90
11855;DHT22;5987;53.140;8.904;2022-11-18T06:58:55;3.60;99.90
11855;DHT22;5987;53.140;8.904;2022-11-18T07:02:00;3.60;99.90
11855;DHT22;5987;53.140;8.904;2022-11-18T07:05:05;3.60;99.90
11855;DHT22;5987;53.140;8.904;2022-11-18T07:08:09;3.50;99.90
11855;DHT22;5987;53.140;8.904;2022-11-18T07:11:14;3.60;99.90
11855;DHT22;5987;53.140;8.904;2022-11-18T07:14:21;3.60;99.90
11855;DHT22;5987;53.140;8.904;2022-11-18T07:17:24;3.50;99.90
11855;DHT22;5987;53.140;8.904;2022-11-18T07:20:29;3.50;99.90
11855;DHT22;5987;53.140;8.904;2022-11-18T07:23:33;3.60;99.90
11855;DHT22;5987;53.140;8.904;2022-11-18T07:26:37;3.50;99.90
11855;DHT22;5987;53.140;8.904;2022-11-18T07:29:42;3.50;99.90
11855;DHT22;5987;53.140;8.904;2022-11-18T07:32:46;3.50;99.90
11855;DHT22;5987;53.140;8.904;2022-11-18T07:35:50;3.50;99.90
11855;DHT22;5987;53.140;8.904;2022-11-18T07:38:56;3.50;99.90
11855;DHT22;5987;53.140;8.904;2022-11-18T07:42:01;3.40;99.90
11855;DHT22;5987;53.140;8.904;2022-11-18T07:45:08;3.50;99.90
11855;DHT22;5987;53.140;8.904;2022-11-18T07:48:12;3.40;99.90
11855;DHT22;5987;53.140;8.904;2022-11-18T07:51:18;3.40;99.90
11855;DHT22;5987;53.140;8.904;2022-11-18T07:54:23;3.40;99.90
11855;DHT22;5987;53.140;8.904;2022-11-18T07:57:27;3.50;99.90
11855;DHT22;5987;53.140;8.904;2022-11-18T08:00:32;3.50;99.90
11855;DHT22;5987;53.140;8.904;2022-11-18T08:03:36;3.50;99.90
11855;DHT22;5987;53.140;8.904;2022-11-18T08:06:41;3.50;99.90
11855;DHT22;5987;53.140;8.904;2022-11-18T08:09:45;3.50;99.90
11855;DHT22;5987;53.140;8.904;2022-11-18T08:12:50;3.40;99.90
11855;DHT22;5987;53.140;8.904;2022-11-18T08:15:55;3.40;99.90
11855;DHT22;5987;53.140;8.904;2022-11-18T08:19:00;3.30;99.90
11855;DHT22;5987;53.140;8.904;2022-11-18T08:22:03;3.30;99.90
11855;DHT22;5987;53.140;8.904;2022-11-18T08:25:07;3.30;99.90
11855;DHT22;5987;53.140;8.904;2022-11-18T08:28:12;3.40;99.90
11855;DHT22;5987;53.140;8.904;2022-11-18T08:31:19;3.40;99.90
11855;DHT22;5987;53.140;8.904;2022-11-18T08:34:25;3.50;99.90
11855;DHT22;5987;53.140;8.904;2022-11-18T08:37:29;3.40;99.90
11855;DHT22;5987;53.140;8.904;2022-11-18T08:40:33;3.30;99.90
11855;DHT22;5987;53.140;8.904;2022-11-18T08:43:36;3.30;99.90
11855;DHT22;5987;53.140;8.904;2022-11-18T08:46:42;3.30;99.90
11855;DHT22;5987;53.140;8.904;2022-11-18T08:49:47;3.20;99.90
11855;DHT22;5987;53.140;8.904;2022-11-18T08:52:50;3.20;99.90
11855;DHT22;5987;53.140;8.904;2022-11-18T08:55:55;3.10;99.90
11855;DHT22;5987;53.140;8.904;2022-11-18T08:58:59;3.10;99.90
11855;DHT22;5987;53.140;8.904;2022-11-18T09:02:04;3.10;99.90
11855;DHT22;5987;53.140;8.904;2022-11-18T09:05:08;3.10;99.90
11855;DHT22;5987;53.140;8.904;2022-11-18T09:08:12;3.00;99.90
11855;DHT22;5987;53.140;8.904;2022-11-18T09:11:18;3.00;99.90
11855;DHT22;5987;53.140;8.904;2022-11-18T09:14:23;3.00;99.90
11855;DHT22;5987;53.140;8.904;2022-11-18T09:17:49;3.00;99.90
11855;DHT22;5987;53.140;8.904;2022-11-18T09:20:54;2.90;99.90
11855;DHT22;5987;53.140;8.904;2022-11-18T09:23:58;3.00;99.90
11855;DHT22;5987;53.140;8.904;2022-11-18T09:27:07;3.00;99.90
11855;DHT22;5987;53.140;8.904;2022-11-18T09:30:18;3.00;99.90
11855;DHT22;5987;53.140;8.904;2022-11-18T09:33:23;3.00;99.90
11855;DHT22;5987;53.140;8.904;2022-11-18T09:36:27;3.10;99.90
11855;DHT22;5987;53.140;8.904;2022-11-18T09:39:33;3.10;99.90
11855;DHT22;5987;53.140;8.904;2022-11-18T09:42:49;3.00;99.90
11855;DHT22;5987;53.140;8.904;2022-11-18T09:46:09;3.10;99.90
11855;DHT22;5987;53.140;8.904;2022-11-18T09:49:27;3.10;99.90
11855;DHT22;5987;53.140;8.904;2022-11-18T09:52:38;3.00;99.90
11855;DHT22;5987;53.140;8.904;2022-11-18T09:55:49;3.00;99.90
11855;DHT22;5987;53.140;8.904;2022-11-18T09:58:54;3.10;99.90
11855;DHT22;5987;53.140;8.904;2022-11-18T10:02:08;3.00;99.90
11855;DHT22;5987;53.140;8.904;2022-11-18T10:05:43;3.00;99.90
11855;DHT22;5987;53.140;8.904;2022-11-18T10:09:03;3.20;99.90
11855;DHT22;5987;53.140;8.904;2022-11-18T10:12:23;3.20;99.90
11855;DHT22;5987;53.140;8.904;2022-11-18T10:15:38;3.20;99.90
11855;DHT22;5987;53.140;8.904;2022-11-18T10:18:58;3.10;99.90
11855;DHT22;5987;53.140;8.904;2022-11-18T10:22:18;3.00;99.90
11855;DHT22;5987;53.140;8.904;2022-11-18T10:25:28;3.10;99.90
11855;DHT22;5987;53.140;8.904;2022-11-18T10:28:32;3.20;99.90
11855;DHT22;5987;53.140;8.904;2022-11-18T10:31:37;3.20;99.90
11855;DHT22;5987;53.140;8.904;2022-11-18T10:34:47;3.30;99.90
11855;DHT22;5987;53.140;8.904;2022-11-18T10:38:03;3.30;99.90
11855;DHT22;5987;53.140;8.904;2022-11-18T10:41:12;3.40;99.90
11855;DHT22;5987;53.140;8.904;2022-11-18T10:44:30;3.40;99.90
11855;DHT22;5987;53.140;8.904;2022-11-18T10:47:35;3.40;99.90
11855;DHT22;5987;53.140;8.904;2022-11-18T10:50:40;3.40;99.90
11855;DHT22;5987;53.140;8.904;2022-11-18T10:53:51;3.30;99.90
11855;DHT22;5987;53.140;8.904;2022-11-18T10:57:14;3.30;99.90
11855;DHT22;5987;53.140;8.904;2022-11-18T11:00:42;3.30;99.90
11855;DHT22;5987;53.140;8.904;2022-11-18T11:03:58;3.30;99.90
11855;DHT22;5987;53.140;8.904;2022-11-18T11:07:23;3.40;99.90
11855;DHT22;5987;53.140;8.904;2022-11-18T11:10:33;3.40;99.90
11855;DHT22;5987;53.140;8.904;2022-11-18T11:13:42;3.30;99.90
11855;DHT22;5987;53.140;8.904;2022-11-18T11:16:57;3.30;99.90
11855;DHT22;5987;53.140;8.904;2022-11-18T11:20:10;3.40;99.90
11855;DHT22;5987;53.140;8.904;2022-11-18T11:23:23;3.40;99.90
11855;DHT22;5987;53.140;8.904;2022-11-18T11:26:33;3.40;99.90
11855;DHT22;5987;53.140;8.904;2022-11-18T11:30:16;3.30;99.90
11855;DHT22;5987;53.140;8.904;2022-11-18T11:33:30;3.30;99.90
11855;DHT22;5987;53.140;8.904;2022-11-18T11:36:46;3.30;99.90
11855;DHT22;5987;53.140;8.904;2022-11-18T11:40:11;3.30;99.90
11855;DHT22;5987;53.140;8.904;2022-11-18T11:43:33;3.30;99.90
11855;DHT22;5987;53.140;8.904;2022-11-18T11:46:53;3.30;99.90
11855;DHT22;5987;53.140;8.904;2022-11-18T11:50:32;3.40;99.90
11855;DHT22;5987;53.140;8.904;2022-11-18T11:54:29;3.40;99.90
11855;DHT22;5987;53.140;8.904;2022-11-18T11:57:53;3.50;99.90
11855;DHT22;5987;53.140;8.904;2022-11-18T12:01:14;3.50;99.90
11855;DHT22;5987;53.140;8.904;2022-11-18T12:04:31;3.50;99.90
11855;DHT22;5987;53.140;8.904;2022-11-18T12:07:44;3.30;99.90
11855;DHT22;5987;53.140;8.904;2022-11-18T12:10:58;3.30;99.90
11855;DHT22;5987;53.140;8.904;2022-11-18T12:14:10;3.30;99.90
11855;DHT22;5987;53.140;8.904;2022-11-18T12:17:28;3.30;99.90
11855;DHT22;5987;53.140;8.904;2022-11-18T12:20:39;3.30;99.90
11855;DHT22;5987;53.140;8.904;2022-11-18T12:27:58;3.20;99.90
11855;DHT22;5987;53.140;8.904;2022-11-18T12:31:32;3.10;99.90
11855;DHT22;5987;53.140;8.904;2022-11-18T12:34:40;3.10;99.90
11855;DHT22;5987;53.140;8.904;2022-11-18T12:37:57;3.10;99.90
11855;DHT22;5987;53.140;8.904;2022-11-18T12:41:02;3.10;99.90
11855;DHT22;5987;53.140;8.904;2022-11-18T12:44:47;3.10;99.90
11855;DHT22;5987;53.140;8.904;2022-11-18T12:47:57;3.00;99.90
11855;DHT22;5987;53.140;8.904;2022-11-18T12:54:50;3.00;99.90
11855;DHT22;5987;53.140;8.904;2022-11-18T12:57:55;2.90;99.90
11855;DHT22;5987;53.140;8.904;2022-11-18T13:01:06;2.90;99.90
11855;DHT22;5987;53.140;8.904;2022-11-18T13:04:14;3.00;99.90
11855;DHT22;5987;53.140;8.904;2022-11-18T13:07:23;3.10;99.90
11855;DHT22;5987;53.140;8.904;2022-11-18T13:10:47;3.10;99.90
11855;DHT22;5987;53.140;8.904;2022-11-18T13:14:17;3.10;99.90
11855;DHT22;5987;53.140;8.904;2022-11-18T13:17:40;2.90;99.90
11855;DHT22;5987;53.140;8.904;2022-11-18T13:20:57;2.90;99.90
11855;DHT22;5987;53.140;8.904;2022-11-18T13:24:23;2.90;99.90
11855;DHT22;5987;53.140;8.904;2022-11-18T13:27:34;2.90;99.90
11855;DHT22;5987;53.140;8.904;2022-11-18T13:30:51;3.00;99.90
11855;DHT22;5987;53.140;8.904;2022-11-18T13:34:07;3.00;99.90
11855;DHT22;5987;53.140;8.904;2022-11-18T13:37:20;3.00;99.90
11855;DHT22;5987;53.140;8.904;2022-11-18T13:40:29;3.00;99.90
11855;DHT22;5987;53.140;8.904;2022-11-18T13:43:40;3.10;99.90
11855;DHT22;5987;53.140;8.904;2022-11-18T13:46:44;3.10;99.90
11855;DHT22;5987;53.140;8.904;2022-11-18T13:49:55;3.00;99.90
11855;DHT22;5987;53.140;8.904;2022-11-18T13:53:13;3.00;99.90
11855;DHT22;5987;53.140;8.904;2022-11-18T13:56:29;2.80;99.90
11855;DHT22;5987;53.140;8.904;2022-11-18T13:59:36;2.80;99.90
11855;DHT22;5987;53.140;8.904;2022-11-18T14:02:43;2.70;99.90
11855;DHT22;5987;53.140;8.904;2022-11-18T14:05:52;2.70;99.90
11855;DHT22;5987;53.140;8.904;2022-11-18T14:09:11;2.70;99.90
11855;DHT22;5987;53.140;8.904;2022-11-18T14:12:24;2.80;99.90
11855;DHT22;5987;53.140;8.904;2022-11-18T14:15:34;2.80;99.90
11855;DHT22;5987;53.140;8.904;2022-11-18T14:18:46;2.80;99.90
11855;DHT22;5987;53.140;8.904;2022-11-18T14:21:50;2.70;99.90
11855;DHT22;5987;53.140;8.904;2022-11-18T14:24:56;2.70;99.90
11855;DHT22;5987;53.140;8.904;2022-11-18T14:28:12;2.70;99.90
11855;DHT22;5987;53.140;8.904;2022-11-18T14:31:24;2.70;99.90
11855;DHT22;5987;53.140;8.904;2022-11-18T14:34:29;2.60;99.90
11855;DHT22;5987;53.140;8.904;2022-11-18T14:37:33;2.70;99.90
11855;DHT22;5987;53.140;8.904;2022-11-18T14:40:36;2.70;99.90
11855;DHT22;5987;53.140;8.904;2022-11-18T14:43:42;2.60;99.90
11855;DHT22;5987;53.140;8.904;2022-11-18T14:46:49;2.60;99.90
11855;DHT22;5987;53.140;8.904;2022-11-18T14:49:54;2.50;99.90
11855;DHT22;5987;53.140;8.904;2022-11-18T14:52:58;2.50;99.90
11855;DHT22;5987;53.140;8.904;2022-11-18T14:56:01;2.60;99.90
11855;DHT22;5987;53.140;8.904;2022-11-18T14:59:08;2.50;99.90
11855;DHT22;5987;53.140;8.904;2022-11-18T15:02:15;2.60;99.90
11855;DHT22;5987;53.140;8.904;2022-11-18T15:05:19;2.60;99.90
11855;DHT22;5987;53.140;8.904;2022-11-18T15:08:23;2.50;99.90
11855;DHT22;5987;53.140;8.904;2022-11-18T15:11:26;2.50;99.90
11855;DHT22;5987;53.140;8.904;2022-11-18T15:14:32;2.50;99.90
11855;DHT22;5987;53.140;8.904;2022-11-18T15:17:36;2.50;99.90
11855;DHT22;5987;53.140;8.904;2022-11-18T15:20:40;2.50;99.90
11855;DHT22;5987;53.140;8.904;2022-11-18T15:23:43;2.60;99.90
11855;DHT22;5987;53.140;8.904;2022-11-18T15:26:47;2.60;99.90
11855;DHT22;5987;53.140;8.904;2022-11-18T15:29:53;2.50;99.90
11855;DHT22;5987;53.140;8.904;2022-11-18T15:33:02;2.50;99.90
11855;DHT22;5987;53.140;8.904;2022-11-18T15:36:11;2.50;99.90
11855;DHT22;5987;53.140;8.904;2022-11-18T15:39:16;2.40;99.90
11855;DHT22;5987;53.140;8.904;2022-11-18T15:42:20;2.40;99.90
11855;DHT22;5987;53.140;8.904;2022-11-18T15:45:27;2.40;99.90
11855;DHT22;5987;53.140;8.904;2022-11-18T15:48:30;2.40;99.90
11855;DHT22;5987;53.140;8.904;2022-11-18T15:51:34;2.40;99.90
11855;DHT22;5987;53.140;8.904;2022-11-18T15:54:38;2.40;99.90
11855;DHT22;5987;53.140;8.904;2022-11-18T15:57:41;2.40;99.90
11855;DHT22;5987;53.140;8.904;2022-11-18T16:00:46;2.40;99.90
11855;DHT22;5987;53.140;8.904;2022-11-18T16:03:50;2.40;99.90
11855;DHT22;5987;53.140;8.904;2022-11-18T16:06:54;2.40;99.90
11855;DHT22;5987;53.140;8.904;2022-11-18T16:10:00;2.40;99.90
11855;DHT22;5987;53.140;8.904;2022-11-18T16:13:19;2.50;99.90
11855;DHT22;5987;53.140;8.904;2022-11-18T16:16:25;2.50;99.90
11855;DHT22;5987;53.140;8.904;2022-11-18T16:19:31;2.50;99.90
11855;DHT22;5987;53.140;8.904;2022-11-18T16:22:34;2.50;99.90
11855;DHT22;5987;53.140;8.904;2022-11-18T16:25:42;2.50;99.90
11855;DHT22;5987;53.140;8.904;2022-11-18T16:28:47;2.50;99.90
11855;DHT22;5987;53.140;8.904;2022-11-18T16:31:52;2.50;99.90
11855;DHT22;5987;53.140;8.904;2022-11-18T16:34:56;2.60;99.90
11855;DHT22;5987;53.140;8.904;2022-11-18T16:38:02;2.60;99.90
11855;DHT22;5987;53.140;8.904;2022-11-18T16:41:09;2.50;99.90
11855;DHT22;5987;53.140;8.904;2022-11-18T16:44:27;2.50;99.90
11855;DHT22;5987;53.140;8.904;2022-11-18T16:47:32;2.50;99.90
11855;DHT22;5987;53.140;8.904;2022-11-18T16:50:35;2.50;99.90
11855;DHT22;5987;53.140;8.904;2022-11-18T16:53:39;2.60;99.90
11855;DHT22;5987;53.140;8.904;2022-11-18T16:56:43;2.60;99.90
11855;DHT22;5987;53.140;8.904;2022-11-18T16:59:47;2.60;99.90
11855;DHT22;5987;53.140;8.904;2022-11-18T17:02:52;2.60;99.90
11855;DHT22;5987;53.140;8.904;2022-11-18T17:06:10;2.60;99.90
11855;DHT22;5987;53.140;8.904;2022-11-18T17:09:29;2.60;99.90
11855;DHT22;5987;53.140;8.904;2022-11-18T17:12:33;2.70;99.90
11855;DHT22;5987;53.140;8.904;2022-11-18T17:15:48;2.80;99.90
11855;DHT22;5987;53.140;8.904;2022-11-18T17:19:04;2.80;99.90
11855;DHT22;5987;53.140;8.904;2022-11-18T17:22:14;2.70;99.90
11855;DHT22;5987;53.140;8.904;2022-11-18T17:25:23;2.70;99.90
11855;DHT22;5987;53.140;8.904;2022-11-18T17:28:26;2.60;99.90
11855;DHT22;5987;53.140;8.904;2022-11-18T17:31:32;2.60;99.90
11855;DHT22;5987;53.140;8.904;2022-11-18T17:34:37;2.70;99.90
11855;DHT22;5987;53.140;8.904;2022-11-18T17:37:41;2.60;99.90
11855;DHT22;5987;53.140;8.904;2022-11-18T17:40:52;2.60;99.90
11855;DHT22;5987;53.140;8.904;2022-11-18T17:43:57;2.70;99.90
11855;DHT22;5987;53.140;8.904;2022-11-18T17:47:03;2.70;99.90
11855;DHT22;5987;53.140;8.904;2022-11-18T17:50:09;2.60;99.90
11855;DHT22;5987;53.140;8.904;2022-11-18T17:53:13;2.70;99.90
11855;DHT22;5987;53.140;8.904;2022-11-18T17:56:18;2.70;99.90
11855;DHT22;5987;53.140;8.904;2022-11-18T17:59:23;2.60;99.90
11855;DHT22;5987;53.140;8.904;2022-11-18T18:02:27;2.60;99.90
11855;DHT22;5987;53.140;8.904;2022-11-18T18:05:32;2.60;99.90
11855;DHT22;5987;53.140;8.904;2022-11-18T18:08:36;2.60;99.90
11855;DHT22;5987;53.140;8.904;2022-11-18T18:11:40;2.60;99.90
11855;DHT22;5987;53.140;8.904;2022-11-18T18:14:44;2.60;99.90
11855;DHT22;5987;53.140;8.904;2022-11-18T18:17:47;2.50;99.90
11855;DHT22;5987;53.140;8.904;2022-11-18T18:20:52;2.50;99.90
11855;DHT22;5987;53.140;8.904;2022-11-18T18:23:56;2.40;99.90
11855;DHT22;5987;53.140;8.904;2022-11-18T18:27:00;2.40;99.90
11855;DHT22;5987;53.140;8.904;2022-11-18T18:30:04;2.40;99.90
11855;DHT22;5987;53.140;8.904;2022-11-18T18:33:09;2.40;99.90
11855;DHT22;5987;53.140;8.904;2022-11-18T18:36:15;2.40;99.90
11855;DHT22;5987;53.140;8.904;2022-11-18T18:39:20;2.30;99.90
11855;DHT22;5987;53.140;8.904;2022-11-18T18:42:24;2.20;99.90
11855;DHT22;5987;53.140;8.904;2022-11-18T18:45:28;2.10;99.90
11855;DHT22;5987;53.140;8.904;2022-11-18T18:48:50;2.10;99.90
11855;DHT22;5987;53.140;8.904;2022-11-18T18:51:55;2.00;99.90
11855;DHT22;5987;53.140;8.904;2022-11-18T18:54:58;2.00;99.90
11855;DHT22;5987;53.140;8.904;2022-11-18T18:58:02;1.90;99.90
11855;DHT22;5987;53.140;8.904;2022-11-18T19:01:07;1.90;99.90
11855;DHT22;5987;53.140;8.904;2022-11-18T19:04:12;1.80;99.90
11855;DHT22;5987;53.140;8.904;2022-11-18T19:07:19;1.80;99.90
11855;DHT22;5987;53.140;8.904;2022-11-18T19:10:24;1.70;99.90
11855;DHT22;5987;53.140;8.904;2022-11-18T19:13:27;1.60;99.90
11855;DHT22;5987;53.140;8.904;2022-11-18T19:16:30;1.70;99.90
11855;DHT22;5987;53.140;8.904;2022-11-18T19:19:34;1.60;99.90
11855;DHT22;5987;53.140;8.904;2022-11-18T19:22:58;1.60;99.90
11855;DHT22;5987;53.140;8.904;2022-11-18T19:26:22;1.60;99.90
11855;DHT22;5987;53.140;8.904;2022-11-18T19:29:26;1.50;99.90
11855;DHT22;5987;53.140;8.904;2022-11-18T19:32:29;1.50;99.90
11855;DHT22;5987;53.140;8.904;2022-11-18T19:35:35;1.40;99.90
11855;DHT22;5987;53.140;8.904;2022-11-18T19:38:40;1.40;99.90
11855;DHT22;5987;53.140;8.904;2022-11-18T19:41:44;1.40;99.90
11855;DHT22;5987;53.140;8.904;2022-11-18T19:44:48;1.30;99.90
11855;DHT22;5987;53.140;8.904;2022-11-18T19:47:52;1.30;99.90
11855;DHT22;5987;53.140;8.904;2022-11-18T19:51:07;1.20;99.90
11855;DHT22;5987;53.140;8.904;2022-11-18T19:54:14;1.20;99.90
11855;DHT22;5987;53.140;8.904;2022-11-18T19:57:18;1.20;99.90
11855;DHT22;5987;53.140;8.904;2022-11-18T20:00:21;1.10;99.90
11855;DHT22;5987;53.140;8.904;2022-11-18T20:03:27;1.10;99.90
11855;DHT22;5987;53.140;8.904;2022-11-18T20:06:32;1.00;99.90
11855;DHT22;5987;53.140;8.904;2022-11-18T20:09:38;0.90;99.90
11855;DHT22;5987;53.140;8.904;2022-11-18T20:12:42;0.90;99.90
11855;DHT22;5987;53.140;8.904;2022-11-18T20:15:46;0.90;99.90
11855;DHT22;5987;53.140;8.904;2022-11-18T20:18:52;0.90;99.90
11855;DHT22;5987;53.140;8.904;2022-11-18T20:21:57;0.90;99.90
11855;DHT22;5987;53.140;8.904;2022-11-18T20:25:02;0.90;99.90
11855;DHT22;5987;53.140;8.904;2022-11-18T20:28:06;0.80;99.90
11855;DHT22;5987;53.140;8.904;2022-11-18T20:31:16;0.80;99.90
11855;DHT22;5987;53.140;8.904;2022-11-18T20:34:22;0.80;99.90
11855;DHT22;5987;53.140;8.904;2022-11-18T20:37:25;0.80;99.90
11855;DHT22;5987;53.140;8.904;2022-11-18T20:40:31;0.80;99.90